createdAt,value
2023-09-08T00:01:20.799Z,67.27
2023-09-08T00:06:28.546Z,57.43
2023-09-08T00:11:36.380Z,58.82
2023-09-08T00:16:45.186Z,64.93
2023-09-08T00:21:52.935Z,62.93
2023-09-08T00:27:00.667Z,56.36
2023-09-08T00:32:09.266Z,59.13
2023-09-08T00:37:17.038Z,66.84
2023-09-08T00:42:24.773Z,61.82
2023-09-08T00:47:33.023Z,56.62
2023-09-08T00:52:41.245Z,60.66
2023-09-08T00:57:49.044Z,67.16
2023-09-08T01:02:56.971Z,58.97
2023-09-08T01:08:05.931Z,58.21
2023-09-08T01:13:13.747Z,63.22
2023-09-08T01:18:21.997Z,64.75
2023-09-08T01:23:44.409Z,56.81
2023-09-08T01:28:54.235Z,60.59
2023-09-08T01:34:05.795Z,67.07
2023-09-08T01:39:13.548Z,57.68
2023-09-08T01:44:21.637Z,57.84
2023-09-08T01:49:29.442Z,61.58
2023-09-08T01:54:37.196Z,68.44
2023-09-08T01:59:45.939Z,58.65
2023-09-08T02:04:54.094Z,57.28
2023-09-08T02:10:01.883Z,62.16
2023-09-08T02:15:13.013Z,65.16
2023-09-08T02:20:21.758Z,56.67
2023-09-08T02:25:29.467Z,59.19
2023-09-08T02:30:38.209Z,66.43
2023-09-08T02:35:46.060Z,57.37
2023-09-08T02:40:54.131Z,58.56
2023-09-08T02:46:02.042Z,63.52
2023-09-08T02:51:10.475Z,64.49
2023-09-08T02:56:18.206Z,55.91
2023-09-08T03:01:26.060Z,58.86
2023-09-08T03:06:33.770Z,63.35
2023-09-08T03:11:41.542Z,65.70
2023-09-08T03:16:49.325Z,56.92
2023-09-08T03:21:57.524Z,59.29
2023-09-08T03:27:05.727Z,65.68
2023-09-08T03:32:13.699Z,56.29
2023-09-08T03:37:21.582Z,58.44
2023-09-08T03:42:29.321Z,61.32
2023-09-08T03:47:37.173Z,69.52
2023-09-08T03:52:45.200Z,61.33
2023-09-08T03:57:52.897Z,57.83
2023-09-08T04:03:00.923Z,63.13
2023-09-08T04:08:09.406Z,64.84
2023-09-08T04:13:17.173Z,58.02
2023-09-08T04:18:24.982Z,62.89
2023-09-08T04:23:33.307Z,64.14
2023-09-08T04:28:41.336Z,56.62
2023-09-08T04:33:49.154Z,59.23
2023-09-08T04:38:57.165Z,67.80
2023-09-08T04:44:05.026Z,60.30
2023-09-08T04:49:13.122Z,57.44
2023-09-08T04:54:22.380Z,63.53
2023-09-08T04:59:30.135Z,65.66
2023-09-08T05:04:37.848Z,57.75
2023-09-08T05:09:45.964Z,60.56
2023-09-08T05:14:57.748Z,67.13
2023-09-08T05:20:05.922Z,58.50
2023-09-08T05:25:14.186Z,58.50
2023-09-08T05:30:21.973Z,63.70
2023-09-08T05:35:29.729Z,65.32
2023-09-08T05:40:37.967Z,57.93
2023-09-08T05:45:45.690Z,59.52
2023-09-08T05:50:53.500Z,65.78
2023-09-08T05:56:01.350Z,57.64
2023-09-08T06:01:10.165Z,59.13
2023-09-08T06:06:17.865Z,65.79
2023-09-08T06:11:25.579Z,58.01
2023-09-08T06:16:33.326Z,58.31
2023-09-08T06:21:41.128Z,61.35
2023-09-08T06:26:51.140Z,67.40
2023-09-08T06:31:58.979Z,57.60
2023-09-08T06:37:07.117Z,58.35
2023-09-08T06:42:14.807Z,60.69
2023-09-08T06:47:22.617Z,66.46
2023-09-08T06:52:30.377Z,56.42
2023-09-08T06:57:38.105Z,58.18
2023-09-08T07:02:46.069Z,59.29
2023-09-08T07:07:53.906Z,65.71
2023-09-08T07:13:01.983Z,55.73
2023-09-08T07:18:10.248Z,55.84
2023-09-08T07:23:18.288Z,57.62
2023-09-08T07:28:26.123Z,62.18
2023-09-08T07:33:34.017Z,52.70
2023-09-08T07:38:41.827Z,54.38
2023-09-08T07:43:49.749Z,55.09
2023-09-08T07:48:57.844Z,60.06
2023-09-08T07:54:05.779Z,60.63
2023-09-08T07:59:13.684Z,54.01
2023-09-08T08:04:21.595Z,54.98
2023-09-08T08:09:29.394Z,56.93
2023-09-08T08:14:37.653Z,55.60
2023-09-08T08:19:45.347Z,57.33
2023-09-08T08:24:53.236Z,57.10
2023-09-08T08:30:02.466Z,57.05
2023-09-08T08:35:11.244Z,56.49
2023-09-08T08:40:19.139Z,55.34
2023-09-08T08:45:28.586Z,55.78
2023-09-08T08:50:38.158Z,55.65
2023-09-08T08:55:46.970Z,55.05
2023-09-08T09:00:56.435Z,55.12
2023-09-08T09:06:05.143Z,54.37
2023-09-08T09:11:13.320Z,54.49
2023-09-08T09:16:21.474Z,54.56
2023-09-08T09:21:47.435Z,54.79
2023-09-08T09:26:58.039Z,54.32
2023-09-08T09:32:09.311Z,54.69
2023-09-08T09:37:17.102Z,54.35
2023-09-08T09:42:25.278Z,53.84
2023-09-08T09:47:33.288Z,53.61
2023-09-08T09:52:42.468Z,53.45
2023-09-08T09:57:52.586Z,52.47
2023-09-08T10:03:01.200Z,51.57
2023-09-08T10:08:09.788Z,51.79
2023-09-08T10:13:24.052Z,49.87
2023-09-08T10:18:36.048Z,49.93
2023-09-08T10:23:45.956Z,49.55
2023-09-08T10:28:57.034Z,48.35
2023-09-08T10:34:05.873Z,47.52
2023-09-08T10:39:36.983Z,46.74
2023-09-08T10:44:45.577Z,46.51
2023-09-08T10:49:58.822Z,45.31
2023-09-08T10:55:09.182Z,43.96
2023-09-08T11:00:21.817Z,43.51
2023-09-08T11:05:29.702Z,42.70
2023-09-08T11:10:38.887Z,41.76
2023-09-08T11:15:46.622Z,41.16
2023-09-08T11:20:56.945Z,40.94
2023-09-08T11:26:05.568Z,40.30
2023-09-08T11:31:14.991Z,39.59
2023-09-08T11:36:22.840Z,39.81
2023-09-08T11:41:31.753Z,39.24
2023-09-08T11:46:39.960Z,39.89
2023-09-08T11:51:48.200Z,40.10
2023-09-08T11:56:56.333Z,40.06
2023-09-08T12:02:04.458Z,38.96
2023-09-08T12:07:17.464Z,38.94
2023-09-08T12:12:25.287Z,38.85
2023-09-08T12:17:33.109Z,38.60
2023-09-08T12:22:49.220Z,38.01
2023-09-08T12:27:57.343Z,37.84
2023-09-08T12:33:06.512Z,38.05
2023-09-08T12:38:15.328Z,37.41
2023-09-08T12:43:27.293Z,37.57
2023-09-08T12:48:36.570Z,37.86
2023-09-08T12:53:44.395Z,37.50
2023-09-08T12:58:52.147Z,36.40
2023-09-08T13:04:00.520Z,36.42
2023-09-08T13:09:09.612Z,36.77
2023-09-08T13:14:17.335Z,37.15
2023-09-08T13:19:25.140Z,37.36
2023-09-08T13:24:33.162Z,36.90
2023-09-08T13:29:41.495Z,37.24
2023-09-08T13:34:49.555Z,36.97
2023-09-08T13:39:57.525Z,37.33
2023-09-08T13:45:06.263Z,36.68
2023-09-08T13:50:14.684Z,36.38
2023-09-08T13:55:36.725Z,35.94
2023-09-08T14:00:47.165Z,36.01
2023-09-08T14:06:02.750Z,36.72
2023-09-08T14:11:15.799Z,36.84
2023-09-08T14:16:32.901Z,37.11
2023-09-08T14:21:41.211Z,37.04
2023-09-08T14:26:49.046Z,37.78
2023-09-08T14:31:56.858Z,38.14
2023-09-08T14:37:05.743Z,38.13
2023-09-08T14:42:15.427Z,38.31
2023-09-08T14:47:23.240Z,38.90
2023-09-08T14:52:30.965Z,39.37
2023-09-08T14:57:38.938Z,39.58
2023-09-08T15:02:47.474Z,39.47
2023-09-08T15:07:55.290Z,39.51
2023-09-08T15:13:03.277Z,39.53
2023-09-08T15:18:11.154Z,39.78
2023-09-08T15:23:19.005Z,40.32
2023-09-08T15:28:27.310Z,40.63
2023-09-08T15:33:35.397Z,41.51
2023-09-08T15:38:43.540Z,42.17
2023-09-08T15:43:53.334Z,42.52
2023-09-08T15:49:01.182Z,43.04
2023-09-08T15:54:09.470Z,43.35
2023-09-08T15:59:18.201Z,44.45
2023-09-08T16:04:26.196Z,44.61
2023-09-08T16:09:34.013Z,44.86
2023-09-08T16:14:41.779Z,46.30
2023-09-08T16:19:49.659Z,47.84
2023-09-08T16:24:57.388Z,49.57
2023-09-08T16:30:05.837Z,50.53
2023-09-08T16:35:13.710Z,52.41
2023-09-08T16:40:23.534Z,54.07
2023-09-08T16:45:31.425Z,55.55
2023-09-08T16:50:39.219Z,55.74
2023-09-08T16:55:47.054Z,55.33
2023-09-08T17:00:54.819Z,57.61
2023-09-08T17:06:02.725Z,58.62
2023-09-08T17:11:11.576Z,59.28
2023-09-08T17:16:19.352Z,60.01
2023-09-08T17:21:28.879Z,61.30
2023-09-08T17:26:36.635Z,68.10
2023-09-08T17:31:44.709Z,58.02
2023-09-08T17:36:56.979Z,57.87
2023-09-08T17:42:04.997Z,59.67
2023-09-08T17:47:12.751Z,60.88
2023-09-08T17:52:20.645Z,61.93
2023-09-08T17:57:28.444Z,67.73
2023-09-08T18:02:36.786Z,62.13
2023-09-08T18:07:46.121Z,55.47
2023-09-08T18:12:53.997Z,58.06
2023-09-08T18:18:02.052Z,60.05
2023-09-08T18:23:10.163Z,61.61
2023-09-08T18:28:19.034Z,68.75
2023-09-08T18:33:27.161Z,60.49
2023-09-08T18:38:35.670Z,56.23
2023-09-08T18:43:43.411Z,59.21
2023-09-08T18:48:51.291Z,61.41
2023-09-08T18:53:59.035Z,67.64
2023-09-08T18:59:07.130Z,59.38
2023-09-08T19:04:15.235Z,56.47
2023-09-08T19:09:23.343Z,59.70
2023-09-08T19:14:31.388Z,62.80
2023-09-08T19:19:39.094Z,65.99
2023-09-08T19:24:48.934Z,57.18
2023-09-08T19:29:56.920Z,59.16
2023-09-08T19:35:04.872Z,61.45
2023-09-08T19:40:13.247Z,68.32
2023-09-08T19:45:21.826Z,59.04
2023-09-08T19:50:29.778Z,56.63
2023-09-08T19:55:38.478Z,59.71
2023-09-08T20:00:46.168Z,61.87
2023-09-08T20:05:55.030Z,68.32
2023-09-08T20:11:04.108Z,58.72
2023-09-08T20:16:12.162Z,57.27
2023-09-08T20:21:19.988Z,60.12
2023-09-08T20:26:27.808Z,63.99
2023-09-08T20:31:35.518Z,65.56
2023-09-08T20:36:43.239Z,57.03
2023-09-08T20:41:51.061Z,59.33
2023-09-08T20:46:59.191Z,66.25
2023-09-08T20:52:12.839Z,60.73
2023-09-08T20:57:20.656Z,56.58
2023-09-08T21:02:28.453Z,59.66
2023-09-08T21:07:36.162Z,61.83
2023-09-08T21:12:43.899Z,69.10
2023-09-08T21:17:51.741Z,58.80
2023-09-08T21:23:02.908Z,57.66
2023-09-08T21:28:10.801Z,60.95
2023-09-08T21:33:21.830Z,67.79
2023-09-08T21:38:29.737Z,58.41
2023-09-08T21:43:38.021Z,57.36
2023-09-08T21:48:46.105Z,60.73
2023-09-08T21:53:53.983Z,68.00
2023-09-08T21:59:01.743Z,58.98
2023-09-08T22:04:10.248Z,57.31
2023-09-08T22:09:19.966Z,60.90
2023-09-08T22:14:28.701Z,67.56
2023-09-08T22:19:36.449Z,58.81
2023-09-08T22:24:44.176Z,56.87
2023-09-08T22:29:51.929Z,61.02
2023-09-08T22:34:59.797Z,66.71
2023-09-08T22:40:10.406Z,58.42
2023-09-08T22:45:18.535Z,57.46
2023-09-08T22:50:27.419Z,60.91
2023-09-08T22:55:35.255Z,68.01
2023-09-08T23:00:43.139Z,58.33
2023-09-08T23:05:51.400Z,57.56
2023-09-08T23:10:59.108Z,62.41
2023-09-08T23:16:07.201Z,66.73
2023-09-08T23:21:14.973Z,58.46
2023-09-08T23:26:22.907Z,57.31
2023-09-08T23:31:30.657Z,64.72
2023-09-08T23:36:38.412Z,67.43
2023-09-08T23:41:47.324Z,60.55
2023-09-08T23:46:55.219Z,56.33
2023-09-08T23:52:03.125Z,59.23
2023-09-08T23:57:10.904Z,67.19
